Terminal Aerodrome Forecast
Issued by NWS Central Illinois

Home | Current Version | Previous Version | Text Only | Print | Product List | Glossary On
Versions: 1 2 3 4 5 6 7 8 9 10 11 12 13
564
FTUS43 KILX 231737
TAFSPI
TAF
KSPI 231737Z 2318/2418 14006KT P6SM BKN060
     FM240000 14003KT P6SM SCT250=

USA.gov is the U.S. government's official web portal to all federal, state and local government web resources and services.